^^
Grace C. Lehan Memorial Weather Station Historical Data
Daily Summary for July 29, 2021 Units:  English    Metric   Both
Daily Weekly Monthly Yearly
  High: Low: Average:
Temperature: 99.6 °F 75.4 °F 83.9 °F
Dew Point: 79.5 °F 71.5 °F 74.8 °F
Humidity: 94% 46% 76%
Wind Speed: 6.2mph 0mph 0.4mph
Wind Gust: 25mph - -
Wind- - WSW
Pressure: 30.15 in 30.01 in -
Precipitation: 0.23 in    
 
 
Tabular Data for July 29, 2021
Time Temperature Dew Point Pressure Wind Wind Speed Wind Gust Humidity Rainfall Rate (Hourly) solar
00:00 79.2 °F 72.9 °F 30.13 in Calm     81% 0.00 in 0 W/m2
00:09 79.1 °F 72.7 °F 30.13 in Calm     81% 0.00 in 0 W/m2
00:14 79 °F 72.6 °F 30.13 in Calm     81% 0.00 in 0 W/m2
00:19 78.9 °F 72.5 °F 30.13 in Calm     81% 0.00 in 0 W/m2
00:24 78.7 °F 72.5 °F 30.13 in Calm     81.3% 0.00 in 0 W/m2
00:29 78.6 °F 72.7 °F 30.12 in Calm     82% 0.00 in 0 W/m2
00:34 78.5 °F 72.6 °F 30.13 in Calm     82% 0.00 in 0 W/m2
00:39 78.5 °F 72.5 °F 30.12 in Calm     82% 0.00 in 0 W/m2
00:44 78.4 °F 72.4 °F 30.13 in Calm     82% 0.00 in 0 W/m2
00:49 78.3 °F 72.3 °F 30.13 in Calm     82% 0.00 in 0 W/m2
00:54 78.2 °F 72.2 °F 30.13 in Calm     82% 0.00 in 0 W/m2
00:59 78.1 °F 72.2 °F 30.13 in Calm     82.2% 0.00 in 0 W/m2
01:04 78 °F 72.4 °F 30.13 in Calm     83% 0.00 in 0 W/m2
01:09 77.9 °F 72.3 °F 30.13 in Calm     83% 0.00 in 0 W/m2
01:14 77.8 °F 72.2 °F 30.13 in Calm     83% 0.00 in 0 W/m2
01:19 77.7 °F 72.1 °F 30.13 in Calm     83% 0.00 in 0 W/m2
01:24 77.6 °F 72 °F 30.13 in Calm     83% 0.00 in 0 W/m2
01:29 77.5 °F 72.3 °F 30.13 in Calm     84% 0.00 in 0 W/m2
01:34 77.4 °F 72.2 °F 30.13 in Calm     84% 0.00 in 0 W/m2
01:39 77.4 °F 72.2 °F 30.13 in Calm     84% 0.00 in 0 W/m2
01:44 77.3 °F 72.2 °F 30.13 in Calm     84.3% 0.00 in 0 W/m2
01:49 77.2 °F 72.4 °F 30.13 in Calm     85% 0.00 in 0 W/m2
01:54 77.2 °F 72.3 °F 30.13 in Calm     85% 0.00 in 0 W/m2
01:59 77.1 °F 72.3 °F 30.12 in Calm     85% 0.00 in 0 W/m2
02:04 77.1 °F 72.2 °F 30.12 in Calm     85% 0.00 in 0 W/m2
02:09 77 °F 72.2 °F 30.12 in Calm     85% 0.00 in 0 W/m2
02:14 77 °F 72.2 °F 30.12 in Calm     85% 0.00 in 0 W/m2
02:19 77 °F 72.1 °F 30.12 in Calm     85% 0.00 in 0 W/m2
02:24 76.9 °F 72.1 °F 30.12 in Calm     85% 0.00 in 0 W/m2
02:29 76.9 °F 72.1 °F 30.12 in Calm     85% 0.00 in 0 W/m2
02:34 76.8 °F 72 °F 30.12 in Calm     85% 0.00 in 0 W/m2
02:39 76.8 °F 71.9 °F 30.12 in Calm     85% 0.00 in 0 W/m2
02:44 76.8 °F 72 °F 30.12 in Calm     85% 0.00 in 0 W/m2
02:49 76.8 °F 71.9 °F 30.12 in Calm     85% 0.00 in 0 W/m2
02:54 76.8 °F 71.9 °F 30.12 in Calm     85% 0.00 in 0 W/m2
02:59 76.8 °F 71.9 °F 30.12 in Calm     85% 0.00 in 0 W/m2
03:04 76.7 °F 71.9 °F 30.12 in Calm     85% 0.00 in 0 W/m2
03:09 76.7 °F 71.9 °F 30.12 in Calm     85% 0.00 in 0 W/m2
03:14 76.6 °F 71.8 °F 30.12 in Calm     85.2% 0.00 in 0 W/m2
03:19 76.5 °F 72 °F 30.12 in Calm     86% 0.00 in 0 W/m2
03:24 76.4 °F 71.9 °F 30.12 in Calm     86% 0.00 in 0 W/m2
03:29 76.3 °F 71.8 °F 30.12 in Calm     86% 0.00 in 0 W/m2
03:34 76.2 °F 71.7 °F 30.12 in Calm     86% 0.00 in 0 W/m2
03:39 76.1 °F 71.7 °F 30.12 in Calm     86% 0.00 in 0 W/m2
03:44 76.1 °F 71.6 °F 30.12 in Calm     86% 0.00 in 0 W/m2
03:49 76 °F 71.5 °F 30.12 in Calm     86% 0.00 in 0 W/m2
03:54 75.9 °F 71.7 °F 30.12 in Calm     86.9% 0.00 in 0 W/m2
03:59 75.9 °F 71.7 °F 30.12 in Calm     87% 0.00 in 0 W/m2
04:04 75.8 °F 71.7 °F 30.12 in Calm     87% 0.00 in 0 W/m2
04:09 75.8 °F 71.7 °F 30.12 in Calm     87% 0.00 in 0 W/m2
04:14 75.7 °F 71.6 °F 30.12 in Calm     87% 0.00 in 0 W/m2
04:19 75.7 °F 71.6 °F 30.12 in Calm     87% 0.00 in 0 W/m2
04:24 75.7 °F 71.6 °F 30.12 in Calm     87% 0.00 in 0 W/m2
04:29 75.7 °F 71.6 °F 30.12 in Calm     87% 0.00 in 0 W/m2
04:34 75.7 °F 71.6 °F 30.13 in Calm     87.1% 0.00 in 0 W/m2
04:39 75.6 °F 71.8 °F 30.13 in Calm     88% 0.00 in 0 W/m2
04:44 75.6 °F 71.8 °F 30.13 in Calm     88% 0.00 in 0 W/m2
04:49 75.5 °F 71.7 °F 30.13 in Calm     88% 0.00 in 0 W/m2
04:54 75.5 °F 71.7 °F 30.13 in Calm     88% 0.00 in 0 W/m2
04:59 75.5 °F 71.7 °F 30.14 in Calm     88% 0.00 in 0 W/m2
05:04 75.4 °F 71.6 °F 30.14 in Calm     88% 0.00 in 0 W/m2
05:09 75.4 °F 71.6 °F 30.14 in Calm     88% 0.00 in 0 W/m2
05:14 75.4 °F 71.6 °F 30.14 in Calm     88% 0.00 in 0 W/m2
05:19 75.4 °F 71.6 °F 30.14 in Calm     88% 0.00 in 0 W/m2
05:24 75.4 °F 71.6 °F 30.14 in Calm     88% 0.00 in 0 W/m2
05:29 75.4 °F 71.6 °F 30.14 in Calm     88% 0.00 in 5 W/m2
05:34 75.4 °F 71.6 °F 30.14 in Calm     88% 0.00 in 5 W/m2
05:39 75.4 °F 71.7 °F 30.14 in Calm     88.3% 0.00 in 9 W/m2
05:44 75.4 °F 71.8 °F 30.14 in Calm     88.5% 0.00 in 11 W/m2
05:49 75.5 °F 72 °F 30.14 in Calm     89% 0.00 in 12 W/m2
05:54 75.5 °F 72 °F 30.14 in Calm     89% 0.00 in 14 W/m2
05:59 75.6 °F 72.1 °F 30.14 in Calm     89% 0.00 in 18 W/m2
06:04 75.6 °F 72.1 °F 30.14 in Calm     89% 0.00 in 19 W/m2
06:09 75.7 °F 72.3 °F 30.14 in Calm     89% 0.00 in 21 W/m2
06:14 75.9 °F 72.4 °F 30.14 in Calm     89% 0.00 in 23 W/m2
06:19 76 °F 72.5 °F 30.14 in Calm     88.9% 0.00 in 26 W/m2
06:24 76.2 °F 72.4 °F 30.15 in Calm     88.1% 0.00 in 28 W/m2
06:29 76.3 °F 72.7 °F 30.15 in Calm     88.5% 0.00 in 33 W/m2
06:34 76.5 °F 72.7 °F 30.15 in Calm     88% 0.00 in 40 W/m2
06:39 76.8 °F 73 °F 30.15 in Calm     88% 0.00 in 47 W/m2
06:44 77 °F 73.2 °F 30.15 in Calm     88% 0.00 in 53 W/m2
06:49 77.5 °F 73.4 °F 30.15 in Calm     87.2% 0.00 in 62 W/m2
06:54 78.1 °F 73.8 °F 30.15 in Calm     86.7% 0.00 in 65 W/m2
06:59 78.9 °F 74 °F 30.15 in Calm     85.2% 0.00 in 69 W/m2
07:04 79.7 °F 74.2 °F 30.15 in Calm     83.4% 0.00 in 70 W/m2
07:09 80.6 °F 74.5 °F 30.15 in Calm     81.6% 0.00 in 84 W/m2
07:14 81.4 °F 74.8 °F 30.15 in Calm     80.3% 0.00 in 79 W/m2
07:19 82.1 °F 75.2 °F 30.15 in Calm     79.5% 0.00 in 77 W/m2
07:24 82.7 °F 75.2 °F 30.15 in Calm     78.2% 0.00 in 114 W/m2
07:29 83.3 °F 75.3 °F 30.15 in Calm     76.9% 0.00 in 285 W/m2
07:34 83.7 °F 75.6 °F 30.15 in Calm     76.6% 0.00 in 301 W/m2
07:39 84.3 °F 75.9 °F 30.15 in Calm     76.1% 0.00 in 315 W/m2
07:44 84.7 °F 75.8 °F 30.15 in Calm     74.7% 0.00 in 334 W/m2
07:49 85.2 °F 76 °F 30.15 in Calm     74% 0.00 in 352 W/m2
07:54 85.7 °F 76.2 °F 30.15 in Calm     73.3% 0.00 in 369 W/m2
07:59 86.2 °F 76.2 °F 30.15 in Calm     72.1% 0.00 in 383 W/m2
08:00 86.4 °F 76.7 °F 30.15 in Calm     73% 0.00 in 383 W/m2
08:09 86.9 °F 76.8 °F 30.15 in Calm     72% 0.00 in 408 W/m2
08:14 87.4 °F 77 °F 30.15 in Calm     71.3% 0.00 in 429 W/m2
08:19 87.9 °F 77.3 °F 30.15 in Calm     71% 0.00 in 469 W/m2
08:24 88.3 °F 77.3 °F 30.15 in Calm     69.9% 0.00 in 469 W/m2
08:29 88.5 °F 76.7 °F 30.15 in Calm     68.1% 0.00 in 476 W/m2
08:34 88.6 °F 77.2 °F 30.15 in Calm     69.3% 0.00 in 489 W/m2
08:39 89 °F 77.8 °F 30.15 in Calm     69.6% 0.00 in 504 W/m2
08:44 89.5 °F 77.8 °F 30.15 in Calm     68.5% 0.00 in 519 W/m2
08:49 90 °F 78.1 °F 30.15 in Calm     68.2% 0.00 in 529 W/m2
08:54 90.1 °F 77.1 °F 30.15 in Calm     65.8% 0.00 in 552 W/m2
08:59 90.2 °F 77.8 °F 30.14 in Calm     67% 0.00 in 561 W/m2
09:04 90.5 °F 77.7 °F 30.14 in Calm     66.4% 0.00 in 578 W/m2
09:09 90.8 °F 78.5 °F 30.14 in Calm     67.3% 0.00 in 594 W/m2
09:14 91.3 °F 78.4 °F 30.14 in Calm     66% 0.00 in 606 W/m2
09:19 91.7 °F 78.2 °F 30.14 in Calm     65% 0.00 in 622 W/m2
09:24 91.9 °F 78.2 °F 30.14 in Calm     64.5% 0.00 in 631 W/m2
09:29 92.1 °F 78.8 °F 30.14 in Calm     65.2% 0.00 in 649 W/m2
09:34 92.6 °F 78.8 °F 30.14 in Calm     64.4% 0.00 in 663 W/m2
09:39 92.8 °F 78.7 °F 30.14 in Calm     63.7% 0.00 in 673 W/m2
09:44 93 °F 78.5 °F 30.13 in Calm     62.9% 0.00 in 684 W/m2
09:49 93 °F 78.5 °F 30.13 in Calm     62.8% 0.00 in 696 W/m2
09:54 92.7 °F 78.6 °F 30.13 in Calm     63.8% 0.00 in 710 W/m2
09:59 93 °F 78.5 °F 30.13 in Calm     63% 0.00 in 724 W/m2
10:04 93.5 °F 78.2 °F 30.13 in Calm     61.3% 0.00 in 733 W/m2
10:09 93.9 °F 78.3 °F 30.13 in Calm     60.9% 0.00 in 744 W/m2
10:14 94.2 °F 78.3 °F 30.13 in Calm     60.3% 0.00 in 749 W/m2
10:19 94.4 °F 77.6 °F 30.13 in Calm     58.5% 0.00 in 759 W/m2
10:24 94.5 °F 78.4 °F 30.12 in West 1.8 mph 7 mph 59.9% 0.00 in 766 W/m2
10:29 94.9 °F 78.1 °F 30.12 in West 0.1 mph 7 mph 58.5% 0.00 in 777 W/m2
10:34 95.5 °F 79.5 °F 30.12 in WNW 0.6 mph 7 mph 60.1% 0.00 in 782 W/m2
10:39 96.1 °F 78.2 °F 30.12 in Calm   5 mph 56.6% 0.00 in 789 W/m2
10:44 96.3 °F 78.1 °F 30.12 in WNW 0.2 mph 5 mph 56% 0.00 in 800 W/m2
10:49 96.5 °F 78.6 °F 30.12 in West 0.5 mph 5 mph 56.5% 0.00 in 809 W/m2
10:54 96.9 °F 79 °F 30.12 in West 1.5 mph 9 mph 56.7% 0.00 in 819 W/m2
10:59 97.2 °F 78.7 °F 30.12 in West 0.5 mph 9 mph 55.7% 0.00 in 828 W/m2
11:02 97.3 °F 78.5 °F 30.12 in West 0.3 mph 9 mph 55.1% 0.00 in 842 W/m2
11:30 98 °F 78 °F 30.11 in NW 2 mph 10 mph 53% 0.00 in 845 W/m2
12:04 97.7 °F 77.1 °F 30.10 in West 0.4 mph 2 mph 52% 0.00 in 918 W/m2
12:09 97.8 °F 76.7 °F 30.10 in West 0.6 mph 3 mph 51.1% 0.00 in 918 W/m2
12:10 97.9 °F 76.7 °F 30.10 in West 1.3 mph 3 mph 51% 0.00 in 916 W/m2
12:30 98.8 °F 75.1 °F 30.09 in West 1 mph 6 mph 47% 0.00 in 921 W/m2
13:00 99.2 °F 77.3 °F 30.08 in West 1 mph 9 mph 50% 0.00 in 947 W/m2
13:30 99.1 °F 74.7 °F 30.07 in West 2 mph 6 mph 46% 0.00 in 873 W/m2
14:30 99.4 °F 75 °F 30.06 in WSW 2 mph 9 mph 46% 0.00 in 919 W/m2
15:00 99.5 °F 75.7 °F 30.05 in WSW 2 mph 13 mph 47% 0.00 in 744 W/m2
15:30 99.6 °F 78.3 °F 30.05 in SW 2 mph 10 mph 51% 0.00 in 823 W/m2
16:04 99.2 °F 75 °F 30.04 in WSW 1.7 mph 4 mph 46.4% 0.00 in 113 W/m2
16:09 99 °F 75.2 °F 30.04 in SW 1.6 mph 6 mph 47% 0.00 in 684 W/m2
16:14 98.6 °F 75.4 °F 30.04 in WSW 1.5 mph 6 mph 47.9% 0.00 in 673 W/m2
16:19 98.4 °F 75.6 °F 30.03 in WNW 2.2 mph 9 mph 48.5% 0.00 in 633 W/m2
16:24 98.3 °F 75.6 °F 30.03 in WSW 2.2 mph 9 mph 48.5% 0.00 in 97 W/m2
16:29 98.2 °F 75.8 °F 30.03 in WSW 2 mph 9 mph 49% 0.00 in 86 W/m2
16:34 98 °F 75.1 °F 30.03 in WSW 2.3 mph 9 mph 48.2% 0.00 in 98 W/m2
16:39 97.9 °F 76.1 °F 30.03 in WSW 1.4 mph 8 mph 50% 0.00 in 98 W/m2
16:44 98 °F 75.7 °F 30.02 in WSW 1.8 mph 8 mph 49.2% 0.00 in 79 W/m2
16:49 97.9 °F 75.4 °F 30.02 in WSW 2 mph 9 mph 48.9% 0.00 in 114 W/m2
16:54 97.7 °F 74.8 °F 30.02 in SW 1.7 mph 10 mph 48.1% 0.00 in 127 W/m2
16:59 97.6 °F 75.1 °F 30.02 in WSW 2 mph 10 mph 48.9% 0.00 in 123 W/m2
17:04 97.7 °F 75.2 °F 30.02 in West 1.9 mph 10 mph 48.8% 0.00 in 90 W/m2
17:09 97.7 °F 75.6 °F 30.01 in WSW 1.3 mph 6 mph 49.4% 0.00 in 77 W/m2
17:14 97.7 °F 75.5 °F 30.01 in WSW 1.5 mph 6 mph 49.3% 0.00 in 77 W/m2
17:19 97.6 °F 75.2 °F 30.01 in SW 2.7 mph 8 mph 49.1% 0.00 in 77 W/m2
17:24 97.3 °F 74.4 °F 30.01 in SW 2.2 mph 8 mph 48% 0.00 in 65 W/m2
17:29 97.1 °F 74.6 °F 30.01 in SW 2.6 mph 8 mph 48.7% 0.00 in 90 W/m2
17:34 96.8 °F 74.7 °F 30.02 in WSW 3.4 mph 9 mph 49.3% 0.00 in 98 W/m2
17:39 96.6 °F 74.7 °F 30.02 in WSW 2.3 mph 9 mph 49.5% 0.00 in 109 W/m2
17:44 96.5 °F 74.2 °F 30.02 in SW 1.6 mph 9 mph 49% 0.00 in 127 W/m2
17:49 96.5 °F 74.9 °F 30.02 in SW 2 mph 9 mph 50.1% 0.00 in 128 W/m2
17:54 96.5 °F 74.6 °F 30.02 in WSW 1.7 mph 9 mph 49.7% 0.00 in 91 W/m2
17:59 96.5 °F 75.2 °F 30.02 in WSW 1.9 mph 9 mph 50.7% 0.00 in 83 W/m2
18:04 96.3 °F 74.9 °F 30.02 in WSW 1.7 mph 9 mph 50.5% 0.00 in 88 W/m2
18:09 96.1 °F 74.9 °F 30.02 in WSW 1.7 mph 7 mph 50.8% 0.00 in 63 W/m2
18:14 95.8 °F 74.8 °F 30.02 in SW 1.6 mph 7 mph 51% 0.00 in 39 W/m2
18:19 95.3 °F 76.9 °F 30.02 in SW 2.3 mph 7 mph 55.7% 0.00 in 18 W/m2
18:24 94.5 °F 77.3 °F 30.02 in SW 1.4 mph 7 mph 57.6% 0.00 in 16 W/m2
18:29 93.8 °F 77.4 °F 30.01 in SW 1.3 mph 7 mph 59.1% 0.00 in 14 W/m2
18:34 93.1 °F 77.4 °F 30.02 in SW 0.1 mph 7 mph 60.5% 0.00 in 12 W/m2
18:39 92.6 °F 77.6 °F 30.02 in SSW 0.2 mph 4 mph 61.8% 0.00 in 12 W/m2
18:44 92.2 °F 77.5 °F 30.02 in SW 0.5 mph 6 mph 62.5% 0.00 in 14 W/m2
18:49 91.8 °F 77.5 °F 30.02 in SW 2 mph 6 mph 63.1% 0.00 in 16 W/m2
18:54 91.4 °F 77.4 °F 30.03 in WSW 1.6 mph 7 mph 63.6% 0.00 in 25 W/m2
18:59 91.2 °F 77.3 °F 30.03 in SW 1.1 mph 7 mph 64.1% 0.00 in 25 W/m2
19:04 91 °F 77.6 °F 30.04 in WSW 2.8 mph 12 mph 65% 0.00 in 19 W/m2
19:09 90.7 °F 75.8 °F 30.04 in SW 6.2 mph 25 mph 62% 0.00 in 44 W/m2
19:14 89.2 °F 75 °F 30.06 in SW 4.2 mph 25 mph 63.1% 0.15 in 79 W/m2
19:19 86.1 °F 75 °F 30.05 in SSW 0.8 mph 25 mph 69.7% 0.22 in 155 W/m2
19:24 83.7 °F 75 °F 30.05 in Calm   25 mph 75.3% 0.22 in 155 W/m2
19:29 82.3 °F 75.5 °F 30.05 in Calm   25 mph 79.9% 0.22 in 118 W/m2
19:34 81.5 °F 76 °F 30.05 in Calm   25 mph 83.6% 0.22 in 120 W/m2
19:39 80.8 °F 75.9 °F 30.05 in Calm     85% 0.22 in 111 W/m2
19:44 80.2 °F 75.6 °F 30.05 in Calm     85.9% 0.22 in 109 W/m2
19:49 79.9 °F 76 °F 30.06 in South 1.1 mph 4 mph 87.9% 0.22 in 70 W/m2
19:54 79.5 °F 75.6 °F 30.06 in North 0.3 mph 6 mph 87.8% 0.22 in 40 W/m2
19:59 79.2 °F 75.4 °F 30.07 in ENE 0.3 mph 6 mph 88% 0.22 in 9 W/m2
20:04 79 °F 75.5 °F 30.07 in Calm     89% 0.22 in 7 W/m2
20:09 79 °F 75.4 °F 30.08 in Calm     89% 0.22 in 7 W/m2
20:14 78.8 °F 75.3 °F 30.08 in ENE 0.1 mph 1 mph 89% 0.22 in 0 W/m2
20:19 78.7 °F 75.4 °F 30.08 in Calm   1 mph 89.6% 0.22 in 0 W/m2
20:24 78.7 °F 75.5 °F 30.08 in Calm   1 mph 90% 0.22 in 0 W/m2
20:29 78.6 °F 75.5 °F 30.07 in Calm   1 mph 90% 0.22 in 0 W/m2
20:34 78.6 °F 75.5 °F 30.06 in Calm   1 mph 90.3% 0.22 in 0 W/m2
20:39 78.7 °F 75.8 °F 30.06 in Calm     91% 0.01 in 0 W/m2
20:44 78.7 °F 75.9 °F 30.06 in Calm     91% 0.01 in 0 W/m2
20:49 78.8 °F 75.9 °F 30.06 in Calm     91% 0.01 in 0 W/m2
20:54 78.8 °F 76.2 °F 30.07 in Calm     91.7% 0.01 in 0 W/m2
20:59 78.7 °F 76.2 °F 30.07 in Calm     92% 0.01 in 0 W/m2
21:04 78.7 °F 76.2 °F 30.07 in Calm     92% 0.01 in 0 W/m2
21:09 78.7 °F 76.2 °F 30.07 in Calm     92% 0.01 in 0 W/m2
21:14 78.6 °F 76.1 °F 30.06 in Calm     92% 0.01 in 0 W/m2
21:19 78.5 °F 76 °F 30.07 in Calm     92% 0.01 in 0 W/m2
21:24 78.4 °F 75.9 °F 30.07 in Calm     92% 0.01 in 0 W/m2
21:29 78.4 °F 75.9 °F 30.07 in Calm     92% 0.01 in 0 W/m2
21:34 78.4 °F 75.9 °F 30.06 in Calm     92% 0.01 in 0 W/m2
21:39 78.3 °F 75.8 °F 30.06 in Calm     92% 0.01 in 0 W/m2
21:44 78.3 °F 76.1 °F 30.06 in Calm     93% 0.01 in 0 W/m2
21:49 78.2 °F 76 °F 30.06 in Calm     93% 0.01 in 0 W/m2
21:54 78.1 °F 75.9 °F 30.05 in Calm     93% 0.01 in 0 W/m2
21:59 78 °F 75.8 °F 30.05 in Calm     93% 0.01 in 0 W/m2
22:04 77.9 °F 75.8 °F 30.05 in Calm     93% 0.01 in 0 W/m2
22:09 77.8 °F 75.6 °F 30.05 in Calm     93% 0.00 in 0 W/m2
22:14 77.7 °F 75.6 °F 30.05 in Calm     93% 0.00 in 0 W/m2
22:19 77.7 °F 75.5 °F 30.05 in Calm     93% 0.00 in 0 W/m2
22:24 77.6 °F 75.4 °F 30.05 in Calm     93% 0.00 in 0 W/m2
22:29 77.6 °F 75.4 °F 30.05 in Calm     93% 0.00 in 0 W/m2
22:34 77.5 °F 75.3 °F 30.05 in Calm     93% 0.00 in 0 W/m2
22:39 77.4 °F 75.3 °F 30.04 in Calm     93% 0.00 in 0 W/m2
22:44 77.3 °F 75.1 °F 30.04 in Calm     93% 0.00 in 0 W/m2
22:49 77.2 °F 75 °F 30.03 in Calm     93% 0.00 in 0 W/m2
22:54 77.1 °F 74.9 °F 30.04 in Calm     93% 0.00 in 0 W/m2
22:59 77.1 °F 74.9 °F 30.04 in Calm     93% 0.00 in 0 W/m2
23:04 77.1 °F 75.1 °F 30.05 in Calm     93.7% 0.00 in 0 W/m2
23:09 77.1 °F 75.2 °F 30.05 in North 0.8 mph 6 mph 93.8% 0.00 in 0 W/m2
23:14 76.9 °F 74.7 °F 30.05 in Calm   6 mph 93% 0.00 in 0 W/m2
23:19 76.7 °F 74.6 °F 30.05 in Calm   6 mph 93% 0.00 in 0 W/m2
23:24 76.6 °F 74.6 °F 30.05 in Calm   6 mph 93.3% 0.00 in 0 W/m2
23:29 76.6 °F 74.7 °F 30.05 in Calm   6 mph 94% 0.00 in 0 W/m2
23:34 76.5 °F 74.7 °F 30.05 in Calm   6 mph 94% 0.00 in 0 W/m2
23:39 76.5 °F 74.6 °F 30.05 in Calm     94% 0.00 in 0 W/m2
23:44 76.4 °F 74.6 °F 30.05 in Calm     94% 0.00 in 0 W/m2
23:49 76.4 °F 74.5 °F 30.05 in Calm     94% 0.00 in 0 W/m2
23:54 76.3 °F 74.5 °F 30.05 in Calm     94% 0.00 in 0 W/m2
23:59 76.3 °F 74.4 °F 30.05 in Calm     94% 0.00 in 0 W/m2
Hartford County Weather
Compliments of Weather Underground - 4 mb